• Join FlightAware (Why Join?)
  • Login
  • US Flag 
11:24AM EDT


 

Airport Tracker/Info


-or-


 

Live Flight TrackerFlight Track Log ✈ N70AG ✈ 07-Aug-2013 ✈ KSAN - KSCK

Flight Track Log - Related Links

Times and Time Zones

All times are in EDT time to prevent confusion due to time zone crossing. See the N70AG flight status page for this flight to view local times or setup timezone preferences in your user account.

Time Position Orientation Groundspeed Altitude Reporting Facility
EDT Latitude Longitude Course Direction KTS MPH feet Rate Location/Type
06:37PM 32.7869 -117.3011 300° West 225 259 7,400  Level Los Angeles Center
06:38PM 32.8325 -117.3711 308° West 249 287 9,900 2,400 Climbing Los Angeles Center
06:39PM 32.8819 -117.4558 305° West 288 331 12,400 2,820 Climbing Los Angeles Center
06:40PM 32.9583 -117.5364 319° Northwest 341 392 15,800 3,120 Climbing Los Angeles Center
06:41PM 33.0431 -117.6142 322° Northwest 368 423 18,900 3,360 Climbing Los Angeles Center
06:42PM 33.1242 -117.7461 306° West 395 455 22,800 3,300 Climbing Los Angeles Center
06:43PM 33.1925 -117.8617 305° West 411 473 25,800 2,880 Climbing Los Angeles Center
06:44PM 33.2378 -117.9992 292° West 433 498 28,800 3,240 Climbing Los Angeles Center
06:45PM 33.3142 -118.1078 310° West 432 497 32,500 3,120 Climbing Los Angeles Center
06:46PM 33.4208 -118.1714 334° Northwest 431 496 35,300 1,680 Climbing Los Angeles Center
06:47PM 33.5367 -118.2200 341° North 435 501 36,000 300 Climbing Los Angeles Center
06:48PM 33.6931 -118.2894 340° North 467 537 36,000  Level Los Angeles Center
06:49PM 33.8242 -118.3461 340° North 497 572 36,000  Level Los Angeles Center
06:50PM 33.9392 -118.3975 340° North 495 570 36,000  Level Los Angeles Center
06:51PM 34.0919 -118.4658 340° North 490 564 36,000  Level Los Angeles Center
06:52PM 34.2197 -118.5231 340° North 490 564 36,000  Level Los Angeles Center
06:53PM 34.3467 -118.5808 339° North 488 562 36,000  Level Los Angeles Center
06:54PM 34.4742 -118.6414 339° North 492 566 36,000  Level Los Angeles Center
06:56PM 34.6019 -118.6994 339° North 491 565 36,000  Level Los Angeles Center
06:57PM 34.7808 -118.7861 338° Northwest 496 571 36,000  Level Los Angeles Center
06:58PM 34.9008 -118.8433 339° North 498 573 36,000  Level Los Angeles Center
06:59PM 35.0417 -118.9103 339° North 490 564 36,000  Level Los Angeles Center
07:00PM 35.1714 -118.9706 339° North 499 574 36,000  Level Los Angeles Center
07:01PM 35.3006 -119.0325 339° North 503 579 36,000  Level Los Angeles Center
07:02PM 35.4269 -119.0939 338° Northwest 494 568 36,000  Level Los Angeles Center
07:03PM 35.5811 -119.1686 338° Northwest 496 571 36,000  Level Los Angeles Center
07:04PM 35.7081 -119.2328 338° Northwest 496 571 36,000  Level Los Angeles Center
07:05PM 35.8358 -119.2953 338° Northwest 497 572 36,000  Level Los Angeles Center
07:06PM 35.9353 -119.3431 339° North 496 571 36,000 -60 Level Oakland Center
07:07PM 36.0883 -119.4189 338° Northwest 497 572 35,900 -120 Descending Oakland Center
07:08PM 36.2161 -119.4797 339° North 495 570 35,800 -660 Descending Oakland Center
07:09PM 36.3411 -119.5508 335° Northwest 495 570 34,600 -1,080 Descending Oakland Center
07:10PM 36.4483 -119.6514 323° Northwest 487 560 33,700 -1,440 Descending Oakland Center
07:11PM 36.5511 -119.7600 320° Northwest 488 562 31,700 -1,980 Descending Oakland Center
07:12PM 36.6564 -119.8744 319° Northwest 501 577 29,700 -2,040 Descending Oakland Center
07:13PM 36.7611 -119.9886 319° Northwest 503 579 27,600 -2,220 Descending Oakland Center
07:14PM 36.8825 -120.1200 319° Northwest 484 557 25,200 -2,040 Descending Oakland Center
07:15PM 36.9678 -120.2156 318° Northwest 472 543 23,500 -1,800 Descending Oakland Center
07:16PM 37.0644 -120.3200 319° Northwest 460 529 21,500 -1,980 Descending Oakland Center
07:17PM 37.1775 -120.4419 319° Northwest 450 518 19,500 -1,680 Descending Oakland Center
07:18PM 37.2667 -120.5333 321° Northwest 441 507 18,200 -1,560 Descending Northern Cal TRACON
07:19PM 37.3667 -120.6500 317° Northwest 424 488 16,400 -1,800 Descending Northern Cal TRACON
07:20PM 37.4500 -120.7333 322° Northwest 411 473 14,700 -2,460 Descending Northern Cal TRACON
07:22PM 37.6167 -120.9167 319° Northwest 355 409 8,800 -2,280 Descending Northern Cal TRACON
07:23PM 37.6667 -120.9833 313° West 300 345 8,000 -1,320 Descending Northern Cal TRACON
07:24PM 37.7333 -121.0500 322° Northwest 254 292 6,200 -1,860 Descending Northern Cal TRACON
07:25PM 37.7833 -121.1000 322° Northwest 221 254 4,100 -1,920 Descending Northern Cal TRACON
07:26PM 37.8333 -121.1333 332° Northwest 197 227 2,400 -1,560 Descending Northern Cal TRACON
07:27PM 37.8667 -121.1833 310° West 162 186 1,000 -1,080 Descending Northern Cal TRACON
07:28PM 37.8833 -121.2167 302° West 115 132 300 -720 Descending Northern Cal TRACON